Latest Weather Observations for Lockhart River

IDQ60801

Issued at 4:05 am EST Wednesday 24 September 2014 (issued every 30 minutes, with the page automatically refreshed every 10 minutes)

About weather observations | Map of weather stations | Latest weather observations for QLD | Other Formats
Station Details ID: 028008 Name: LOCKHART RIVER AIRPORT Lat: -12.79 Lon: 143.30 Height: 18.5 m
Data from the previous 72 hours. | See also: Recent months at Lockhart River
Date/Time
EST
Temp
°C
App
Temp
°C
Dew
Point
Rel
Hum
%
Delta-T
°C
Wind Press
QNH
hPa
Press
MSL
hPa
Rain
since 9 am
mm
Dir
 
Spd
km/h
Gust
km/h
Spd
kts
Gust
kts
24/04:00am 23.1 24.5 21.9 93 0.8 ESE 17 24 9 13 1013.7 - 3.8
24/03:30am 23.0 23.7 21.6 92 0.9 SE 20 33 11 18 1013.5 - 2.6
24/03:00am 23.7 23.1 21.2 86 1.6 SE 26 35 14 19 1013.8 1013.7 1.6
24/02:33am 24.0 24.6 21.3 85 1.8 SE 20 28 11 15 1014.0 - 1.6
24/02:30am 24.0 24.1 21.1 84 1.9 SE 22 28 12 15 1014.1 - 1.6
24/02:27am 24.0 24.1 21.1 84 1.9 SE 22 28 12 15 1014.1 - 1.6
24/02:00am 23.8 24.0 21.3 86 1.6 SE 22 28 12 15 1014.4 - 1.6
24/01:30am 23.4 23.7 21.5 89 1.3 SE 22 33 12 18 1014.5 - 1.6
24/01:00am 23.7 23.9 21.4 87 1.5 SE 22 32 12 17 1014.7 - 1.6
24/12:30am 24.0 23.6 20.9 83 2.0 SE 24 35 13 19 1014.8 - 1.6
24/12:23am 24.2 23.8 20.9 82 2.2 SE 24 39 13 21 1014.8 - 1.6
24/12:00am 24.2 23.4 20.9 82 2.2 SE 26 37 14 20 1014.9 1014.8 1.6
 
Date/Time
EST
Temp
°C
App
Temp
°C
Dew
Point
Rel
Hum
%
Delta-T
°C
Wind Press
QNH
hPa
Press
MSL
hPa
Rain
since 9 am
mm
Dir
 
Spd
km/h
Gust
km/h
Spd
kts
Gust
kts
23/11:30pm 23.9 24.4 21.2 85 1.8 SE 20 30 11 16 1015.1 - 1.6
23/11:00pm 23.6 24.2 21.3 87 1.5 SE 20 28 11 15 1015.5 - 1.6
23/10:30pm 23.6 25.1 22.0 91 1.1 SE 17 32 9 17 1015.5 - 1.6
23/10:04pm 23.1 24.8 21.7 92 0.9 ESE 15 20 8 11 1015.6 - 1.6
23/10:00pm 23.0 24.3 21.6 92 0.9 ESE 17 28 9 15 1015.6 - 1.6
23/09:36pm 23.0 22.0 21.3 90 1.1 ESE 28 50 15 27 1015.5 - 1.4
23/09:30pm 23.5 24.0 21.9 91 1.1 ESE 22 43 12 23 1015.5 - 1.2
23/09:00pm 23.7 24.1 21.8 89 1.3 ESE 22 32 12 17 1015.3 1015.2 0.8
23/08:53pm 24.0 23.5 21.5 86 1.7 ESE 26 39 14 21 1015.3 - 0.6
23/08:30pm 24.5 25.5 21.8 85 1.8 SE 19 24 10 13 1015.0 - 0.6
23/08:00pm 24.3 24.0 21.8 86 1.7 ESE 26 37 14 20 1014.7 - 0.6
23/07:33pm 23.2 24.9 21.6 91 1.1 SE 15 26 8 14 1014.4 - 0.6
23/07:30pm 23.2 24.1 21.5 90 1.1 SE 19 28 10 15 1014.4 - 0.6
23/07:06pm 24.8 24.5 21.1 80 2.4 SE 24 43 13 23 1014.1 - 0.0
23/07:00pm 25.2 24.5 21.1 78 2.7 SE 26 39 14 21 1013.9 - 0.0
23/06:50pm 25.1 23.9 20.8 77 2.8 SE 28 46 15 25 1013.8 - 0.0
23/06:30pm 25.4 24.2 20.9 76 3.0 SE 28 41 15 22 1013.8 - 0.0
23/06:00pm 25.6 25.0 20.6 74 3.3 SE 24 35 13 19 1013.6 1013.5 0.0
23/05:30pm 26.1 25.0 20.2 70 3.8 SE 26 37 14 20 1013.3 - 0.0
23/05:00pm 26.7 25.6 20.3 68 4.2 SE 26 39 14 21 1013.1 - 0.0
23/04:30pm 26.6 24.8 20.4 69 4.1 SE 30 39 16 21 1013.1 - 0.0
23/04:00pm 26.5 25.9 20.6 70 3.9 ESE 24 35 13 19 1013.1 - 0.0
23/03:30pm 26.5 25.9 20.6 70 3.9 ESE 24 37 13 20 1013.3 - 0.0
23/03:00pm 26.8 25.0 20.4 68 4.2 SE 30 41 16 22 1013.1 - 0.0
23/02:30pm 27.2 25.5 20.5 67 4.4 SE 30 43 16 23 1013.2 - 0.0
23/02:00pm 27.7 26.1 20.8 66 4.6 SE 30 46 16 25 1013.4 - 0.0
23/01:30pm 26.9 26.4 20.7 69 4.1 ESE 24 35 13 19 1013.9 - 0.0
23/01:00pm 27.6 26.3 20.7 66 4.6 ESE 28 46 15 25 1014.3 - 0.0
23/12:58pm 27.7 26.7 21.3 68 4.3 ESE 28 46 15 25 1014.4 - 0.0
23/12:30pm 28.5 26.4 21.0 64 5.0 ESE 33 44 18 24 1014.7 - 0.0
23/12:00pm 28.6 26.9 20.6 62 5.3 ESE 30 41 16 22 1014.9 1014.8 0.0
23/11:30am 29.2 28.4 21.7 64 5.0 ESE 28 43 15 23 1015.4 - 0.0
23/11:00am 27.6 26.5 20.2 64 4.8 ESE 26 41 14 22 1015.9 - 0.0
23/10:30am 26.8 25.5 20.6 69 4.1 SE 28 39 15 21 1016.3 - 0.0
23/10:00am 28.0 27.4 21.3 67 4.5 ESE 26 35 14 19 1016.5 - 0.0
23/09:30am 26.7 25.7 20.5 69 4.1 SE 26 37 14 20 1016.4 - 0.0
23/09:00am 26.1 25.6 20.7 72 3.5 SE 24 32 13 17 1016.4 1016.3 0.0
23/08:30am 26.1 26.0 20.7 72 3.5 SE 22 33 12 18 1016.2 - 0.0
23/08:00am 25.6 25.5 20.8 75 3.2 ESE 22 33 12 18 1015.7 - 0.0
23/07:30am 25.4 25.6 20.6 75 3.1 ESE 20 30 11 16 1015.3 - 0.0
23/07:00am 24.4 25.2 20.7 80 2.4 ESE 17 20 9 11 1015.0 - 0.0
23/06:30am 24.1 24.5 20.6 81 2.3 SE 19 24 10 13 1014.4 - 0.0
23/06:00am 24.0 24.7 20.5 81 2.3 ESE 17 24 9 13 1014.0 1013.9 0.0
23/05:30am 23.4 24.8 20.3 83 2.0 SE 13 19 7 10 1013.6 - 0.0
23/05:00am 23.3 25.2 20.6 85 1.8 SE 11 17 6 9 1013.3 - 0.0
23/04:36am 23.5 24.6 20.4 83 2.0 SE 15 20 8 11 1013.2 - 0.0
23/04:30am 23.6 25.1 20.5 83 2.0 SE 13 20 7 11 1013.1 - 0.0
23/04:15am 23.7 24.9 20.6 83 2.0 SE 15 19 8 10 1013.1 - 0.0
23/04:00am 23.7 25.2 20.6 83 2.0 SE 13 20 7 11 1013.0 - 0.0
23/03:30am 23.5 25.4 20.6 84 1.9 ESE 11 17 6 9 1013.0 - 0.0
23/03:00am 23.6 25.0 20.3 82 2.1 ESE 13 19 7 10 1013.1 1013.0 0.0
23/02:30am 23.8 24.9 20.5 82 2.1 SE 15 22 8 12 1013.3 - 0.0
23/02:25am 23.8 25.3 20.5 82 2.1 SE 13 17 7 9 1013.4 - 0.0
23/02:00am 24.0 24.8 20.7 82 2.2 ESE 17 24 9 13 1013.7 - 0.0
23/01:57am 24.0 24.8 20.7 82 2.2 ESE 17 24 9 13 1013.6 - 0.0
23/01:30am 23.9 25.1 20.6 82 2.2 ESE 15 20 8 11 1013.8 - 0.0
23/01:00am 24.0 24.8 20.7 82 2.2 ESE 17 22 9 12 1014.0 - 0.0
23/12:32am 24.0 24.7 20.5 81 2.3 ESE 17 22 9 12 1014.3 - 0.0
23/12:30am 24.1 24.9 20.6 81 2.3 ESE 17 22 9 12 1014.3 - 0.0
23/12:00am 24.1 24.9 20.6 81 2.3 SE 17 24 9 13 1014.5 1014.4 0.0
 
Date/Time
EST
Temp
°C
App
Temp
°C
Dew
Point
Rel
Hum
%
Delta-T
°C
Wind Press
QNH
hPa
Press
MSL
hPa
Rain
since 9 am
mm
Dir
 
Spd
km/h
Gust
km/h
Spd
kts
Gust
kts
22/11:46pm 24.2 25.4 20.7 81 2.3 ESE 15 20 8 11 1014.7 - 0.0
22/11:30pm 24.2 25.4 20.7 81 2.3 ESE 15 24 8 13 1014.9 - 0.0
22/11:00pm 24.2 25.4 20.7 81 2.3 ESE 15 20 8 11 1014.9 - 0.0
22/10:34pm 24.2 25.0 20.7 81 2.3 ESE 17 22 9 12 1014.9 - 0.0
22/10:30pm 24.2 25.0 20.7 81 2.3 ESE 17 22 9 12 1014.9 - 0.0
22/10:03pm 24.3 24.8 20.8 81 2.3 ESE 19 26 10 14 1014.7 - 0.0
22/10:01pm 24.4 24.9 20.9 81 2.3 ESE 19 26 10 14 1014.7 - 0.0
22/10:00pm 24.4 24.9 20.9 81 2.3 ESE 19 26 10 14 1014.7 - 0.0
22/09:30pm 24.2 25.1 20.9 82 2.2 ESE 17 24 9 13 1014.8 - 0.0
22/09:05pm 24.2 25.9 20.9 82 2.2 SE 13 17 7 9 1014.7 - 0.0
22/09:00pm 24.0 25.6 20.7 82 2.2 ESE 13 17 7 9 1014.7 1014.6 0.0
22/08:30pm 23.9 25.4 20.6 82 2.2 SE 13 17 7 9 1014.4 - 0.0
22/08:00pm 24.1 25.3 20.6 81 2.3 ESE 15 17 8 9 1014.1 - 0.0
22/07:30pm 24.2 25.2 20.3 79 2.5 ESE 15 20 8 11 1013.8 - 0.0
22/07:00pm 24.5 25.1 20.2 77 2.8 ESE 17 22 9 12 1013.6 - 0.0
22/06:30pm 24.9 25.9 20.2 75 3.1 ESE 15 20 8 11 1013.1 - 0.0
22/06:00pm 25.4 25.8 19.8 71 3.6 ESE 17 26 9 14 1012.7 1012.6 0.0
22/05:30pm 25.6 25.3 19.5 69 3.9 ESE 20 32 11 17 1012.5 - 0.0
22/05:00pm 26.2 25.5 19.6 67 4.3 ESE 22 30 12 16 1012.2 - 0.0
22/04:30pm 26.6 26.4 19.7 66 4.5 ESE 20 30 11 16 1011.9 - 0.0
22/04:00pm 28.0 26.9 20.3 63 5.1 SE 26 33 14 18 1011.9 - 0.0
22/03:30pm 28.3 27.4 19.8 60 5.5 ESE 24 35 13 19 1011.9 - 0.0
22/03:00pm 28.4 27.0 19.6 59 5.7 ESE 26 33 14 18 1011.9 1011.8 0.0
22/02:30pm 28.5 27.2 19.1 56 6.1 ESE 24 37 13 20 1012.3 - 0.0
22/02:00pm 28.4 27.2 19.3 57 5.9 ESE 24 35 13 19 1012.7 - 0.0
22/01:30pm 28.8 27.3 19.4 56 6.1 ESE 26 35 14 19 1013.1 - 0.0
22/01:00pm 29.6 28.5 20.2 57 6.2 SE 26 41 14 22 1013.8 - 0.0
22/12:30pm 28.2 27.1 19.4 59 5.7 SE 24 33 13 18 1014.2 - 0.0
22/12:00pm 28.6 28.2 20.1 60 5.6 SE 22 33 12 18 1014.7 1014.6 0.0
22/11:30am 28.6 27.1 19.5 58 5.9 SE 26 39 14 21 1015.2 - 0.0
22/11:00am 27.4 26.2 19.2 61 5.3 ESE 24 35 13 19 1015.6 - 0.0
22/10:30am 27.2 25.5 19.0 61 5.3 ESE 26 37 14 20 1015.7 - 0.0
22/10:00am 27.8 26.9 19.8 61 5.2 SE 24 35 13 19 1016.0 - 0.0
22/09:30am 27.0 26.0 19.6 64 4.8 ESE 24 35 13 19 1016.1 - 0.0
22/09:00am 26.2 25.0 19.3 65 4.4 ESE 24 33 13 18 1016.1 1016.0 0.0
22/08:30am 25.5 25.0 19.9 71 3.6 ESE 22 30 12 16 1015.8 - 0.0
22/08:00am 24.2 26.2 19.9 77 2.8 SSE 9 15 5 8 1015.4 - 0.0
22/07:30am 22.3 25.8 19.5 84 1.8 CALM 0 0 0 0 1015.1 - 0.0
22/07:00am 20.8 24.2 19.3 91 0.9 CALM 0 0 0 0 1015.0 - 0.0
22/06:30am 20.6 23.7 18.7 89 1.2 CALM 0 0 0 0 1014.7 - 0.0
22/06:00am 21.2 24.4 18.8 86 1.5 CALM 0 0 0 0 1014.4 1014.3 0.0
22/05:30am 21.6 24.6 18.4 82 2.0 CALM 0 0 0 0 1014.2 - 0.0
22/05:00am 23.1 23.8 18.8 77 2.7 SE 13 17 7 9 1013.9 - 0.0
22/04:30am 23.5 23.9 19.0 76 2.9 SE 15 20 8 11 1013.6 - 0.0
22/04:00am 23.5 23.6 19.2 77 2.7 SE 17 20 9 11 1013.5 - 0.0
22/03:30am 23.1 24.2 19.7 81 2.2 SE 13 20 7 11 1013.4 - 0.0
22/03:00am 23.4 24.4 19.5 79 2.5 SE 13 19 7 10 1013.6 1013.5 0.0
22/02:30am 23.4 23.7 19.5 79 2.5 SE 17 20 9 11 1013.8 - 0.0
22/02:00am 23.7 24.0 19.6 78 2.6 ESE 17 24 9 13 1014.1 - 0.0
22/01:30am 23.7 23.3 19.4 77 2.8 SE 20 26 11 14 1014.4 - 0.0
22/01:00am 23.8 23.7 19.5 77 2.8 SE 19 26 10 14 1014.7 - 0.0
22/12:30am 23.6 23.4 19.7 79 2.5 SE 20 24 11 13 1014.9 - 0.0
22/12:00am 23.6 23.7 19.9 80 2.4 ESE 19 24 10 13 1015.3 1015.2 0.0
 
Date/Time
EST
Temp
°C
App
Temp
°C
Dew
Point
Rel
Hum
%
Delta-T
°C
Wind Press
QNH
hPa
Press
MSL
hPa
Rain
since 9 am
mm
Dir
 
Spd
km/h
Gust
km/h
Spd
kts
Gust
kts
21/11:30pm 23.8 24.2 19.9 79 2.5 SE 17 24 9 13 1015.4 - 0.0
21/11:00pm 23.9 24.0 20.0 79 2.5 SE 19 28 10 15 1015.7 - 0.0
21/10:30pm 23.8 24.2 19.9 79 2.5 ESE 17 22 9 12 1015.8 - 0.0
21/10:00pm 23.8 24.3 20.1 80 2.4 ESE 17 22 9 12 1015.6 - 0.0
21/09:30pm 23.5 24.7 20.0 81 2.3 SE 13 19 7 10 1015.7 - 0.0
21/09:00pm 23.6 24.9 20.1 81 2.3 SE 13 19 7 10 1015.4 1015.3 0.0
21/08:30pm 23.4 25.1 20.1 82 2.1 SE 11 15 6 8 1015.0 - 0.0
21/08:00pm 23.7 24.9 20.0 80 2.4 SE 13 17 7 9 1014.9 - 0.0
21/07:30pm 23.9 24.7 19.8 78 2.6 SE 15 19 8 10 1014.6 - 0.0
21/07:00pm 24.3 24.6 19.6 75 3.0 ESE 17 24 9 13 1014.3 - 0.0
21/06:30pm 24.7 24.6 19.5 73 3.3 SE 19 30 10 16 1014.1 - 0.0
21/06:00pm 25.2 24.8 19.3 70 3.8 SE 20 26 11 14 1013.9 1013.8 0.0
21/05:30pm 25.6 24.7 19.0 67 4.2 SE 22 32 12 17 1013.7 - 0.0
21/05:00pm 25.9 25.0 19.1 66 4.4 ESE 22 33 12 18 1013.5 - 0.0
21/04:30pm 26.7 25.5 19.3 64 4.8 ESE 24 33 13 18 1013.5 - 0.0
21/04:00pm 26.6 26.1 19.0 63 4.9 SE 20 32 11 17 1013.5 - 0.0
21/03:30pm 26.8 25.8 18.9 62 5.1 ESE 22 32 12 17 1013.3 - 0.0
21/03:00pm 26.9 25.0 18.5 60 5.4 SE 26 37 14 20 1013.5 1013.4 0.0
21/02:30pm 27.3 25.9 18.9 60 5.4 SE 24 33 13 18 1013.7 - 0.0
21/02:00pm 27.1 25.4 18.9 61 5.3 ESE 26 35 14 19 1013.9 - 0.0
21/01:30pm 28.2 26.6 19.1 57 5.9 ESE 26 35 14 19 1014.5 - 0.0
21/01:00pm 27.7 25.6 19.0 59 5.6 ESE 28 39 15 21 1014.8 - 0.0
21/12:30pm 28.2 26.9 19.1 57 5.9 ESE 24 32 13 17 1015.2 - 0.0
21/12:00pm 27.5 25.6 19.3 61 5.3 ESE 28 39 15 21 1015.7 1015.6 0.0
21/11:30am 26.7 25.1 19.1 63 4.9 ESE 26 39 14 21 1016.0 - 0.0
21/11:00am 26.7 25.9 19.3 64 4.8 ESE 22 37 12 20 1016.4 - 0.0
21/10:30am 26.7 25.8 19.1 63 4.9 ESE 22 32 12 17 1016.8 - 0.0
21/10:00am 26.4 25.8 19.8 67 4.3 ESE 22 33 12 18 1016.8 - 0.0
21/09:30am 26.1 25.5 19.7 68 4.1 ESE 22 32 12 17 1016.7 - 0.0
21/09:00am 25.6 24.4 19.3 68 4.0 SE 24 33 13 18 1016.5 1016.4 0.0
21/08:30am 25.4 24.8 19.8 71 3.6 SE 22 33 12 18 1016.3 - 0.0
21/08:00am 25.2 24.2 19.6 71 3.6 ESE 24 32 13 17 1015.6 - 0.0
21/07:30am 24.7 25.7 20.2 76 2.9 ESE 15 20 8 11 1014.9 - 0.0
21/07:00am 24.0 25.2 19.9 78 2.6 ESE 13 20 7 11 1014.6 - 0.0
21/06:30am 23.8 24.6 19.9 79 2.5 ESE 15 19 8 10 1014.0 - 0.0
21/06:00am 23.9 24.8 20.0 79 2.5 SE 15 19 8 10 1013.8 1013.7 0.0
21/05:30am 23.8 24.6 19.9 79 2.5 SE 15 20 8 11 1013.5 - 0.0
21/05:00am 23.7 24.9 20.0 80 2.4 ESE 13 20 7 11 1013.1 - 0.0
21/04:30am 23.8 24.2 19.9 79 2.5 SE 17 20 9 11 1012.8 - 0.0

Other Formats:

Comma delimited format used in spreadsheet applications
http://www.bom.gov.au/fwo/IDQ60801/IDQ60801.94186.axf

JavaScript Object Notation format (JSON) in row-major order
http://www.bom.gov.au/fwo/IDQ60801/IDQ60801.94186.json